createdAt,value
2022-12-14T00:01:35.513Z,11.30
2022-12-14T00:04:02.312Z,11.73
2022-12-14T00:06:31.366Z,12.25
2022-12-14T00:09:00.394Z,12.15
2022-12-14T00:11:27.583Z,11.32
2022-12-14T00:14:00.271Z,11.35
2022-12-14T00:16:29.380Z,10.65
2022-12-14T00:18:58.052Z,11.82
2022-12-14T00:21:25.570Z,12.50
2022-12-14T00:23:53.322Z,12.40
2022-12-14T00:26:28.927Z,12.93
2022-12-14T00:28:56.374Z,12.63
2022-12-14T00:31:24.245Z,12.70
2022-12-14T00:33:51.522Z,12.70
2022-12-14T00:36:18.475Z,14.18
2022-12-14T00:38:45.570Z,13.50
2022-12-14T00:41:12.574Z,12.60
2022-12-14T00:43:39.670Z,13.77
2022-12-14T00:46:06.745Z,12.10
2022-12-14T00:48:33.941Z,13.90
2022-12-14T00:51:00.841Z,11.95
2022-12-14T00:53:27.713Z,12.77
2022-12-14T00:55:54.470Z,13.02
2022-12-14T00:58:23.504Z,14.32
2022-12-14T01:01:06.000Z,13.05
2022-12-14T01:03:33.672Z,14.05
2022-12-14T01:06:00.790Z,13.55
2022-12-14T01:08:35.500Z,14.52
2022-12-14T01:11:07.090Z,12.75
2022-12-14T01:13:34.504Z,13.27
2022-12-14T01:16:06.602Z,13.25
2022-12-14T01:18:38.221Z,13.15
2022-12-14T01:21:31.479Z,13.10
2022-12-14T01:24:03.147Z,13.57
2022-12-14T01:26:31.325Z,13.48
2022-12-14T01:28:59.256Z,15.15
2022-12-14T01:31:30.640Z,14.93
2022-12-14T01:33:57.715Z,14.30
2022-12-14T01:36:29.063Z,13.55
2022-12-14T01:38:58.863Z,14.90
2022-12-14T01:41:31.187Z,15.48
2022-12-14T01:44:03.423Z,14.23
2022-12-14T01:46:39.624Z,13.02
2022-12-14T01:49:14.575Z,14.15
2022-12-14T01:51:44.934Z,14.68
2022-12-14T01:54:13.666Z,13.98
2022-12-14T01:56:44.876Z,13.93
2022-12-14T01:59:17.584Z,15.80
2022-12-14T02:01:45.071Z,15.63
2022-12-14T02:04:16.142Z,16.02
2022-12-14T02:06:44.661Z,15.32
2022-12-14T02:09:18.277Z,14.10
2022-12-14T02:11:52.206Z,15.50
2022-12-14T02:14:18.979Z,13.68
2022-12-14T02:16:46.224Z,14.20
2022-12-14T02:19:13.166Z,15.23
2022-12-14T02:21:51.810Z,14.95
2022-12-14T02:24:27.741Z,14.40
2022-12-14T02:27:03.905Z,14.65
2022-12-14T02:30:00.590Z,14.77
2022-12-14T02:32:57.777Z,15.68
2022-12-14T02:35:42.614Z,14.80
2022-12-14T02:38:28.154Z,16.30
2022-12-14T02:41:23.782Z,16.45
2022-12-14T02:43:55.517Z,16.77
2022-12-14T02:47:05.918Z,16.48
2022-12-14T02:50:08.910Z,16.90
2022-12-14T02:52:38.466Z,17.95
2022-12-14T02:55:20.159Z,15.25
2022-12-14T02:57:52.798Z,17.33
2022-12-14T03:00:20.075Z,16.60
2022-12-14T03:02:49.047Z,16.45
2022-12-14T03:05:16.042Z,16.58
2022-12-14T03:07:53.090Z,16.35
2022-12-14T03:10:48.330Z,17.05
2022-12-14T03:13:35.802Z,16.83
2022-12-14T03:16:09.211Z,16.80
2022-12-14T03:18:41.424Z,16.90
2022-12-14T03:21:12.847Z,18.70
2022-12-14T03:23:42.065Z,18.10
2022-12-14T03:26:25.979Z,18.85
2022-12-14T03:29:00.700Z,17.95
2022-12-14T03:31:33.820Z,18.58
2022-12-14T03:34:05.257Z,17.30
2022-12-14T03:36:46.998Z,18.42
2022-12-14T03:39:20.718Z,19.73
2022-12-14T03:42:04.969Z,18.42
2022-12-14T03:44:49.560Z,17.88
2022-12-14T03:47:38.094Z,18.48
2022-12-14T03:50:23.428Z,17.85
2022-12-14T03:53:16.658Z,19.38
2022-12-14T03:56:18.243Z,18.90
2022-12-14T03:59:31.242Z,17.73
2022-12-14T04:02:20.858Z,17.95
2022-12-14T04:05:18.745Z,19.13
2022-12-14T04:08:02.977Z,16.92
2022-12-14T04:10:56.325Z,18.42
2022-12-14T04:13:45.371Z,19.88
2022-12-14T04:16:39.933Z,18.65
2022-12-14T04:19:13.803Z,15.40
2022-12-14T04:22:02.164Z,19.17
2022-12-14T04:25:05.989Z,19.52
2022-12-14T04:27:38.789Z,18.50
2022-12-14T04:30:07.737Z,20.27
2022-12-14T04:32:52.566Z,20.08
2022-12-14T04:35:23.960Z,18.73
2022-12-14T04:38:01.042Z,20.80
2022-12-14T04:40:40.823Z,18.75
2022-12-14T04:43:18.407Z,19.50
2022-12-14T04:46:07.384Z,19.98
2022-12-14T04:48:40.765Z,18.92
2022-12-14T04:51:33.483Z,19.20
2022-12-14T04:54:34.075Z,18.38
2022-12-14T04:57:19.115Z,19.10
2022-12-14T04:59:47.918Z,19.55
2022-12-14T05:02:39.399Z,19.08
2022-12-14T05:05:16.407Z,20.25
2022-12-14T05:08:02.173Z,18.55
2022-12-14T05:10:37.530Z,19.15
2022-12-14T05:13:22.518Z,19.80
2022-12-14T05:15:52.061Z,19.30
2022-12-14T05:18:19.410Z,20.10
2022-12-14T05:20:50.335Z,20.45
2022-12-14T05:23:17.696Z,20.00
2022-12-14T05:25:44.737Z,17.35
2022-12-14T05:28:15.875Z,20.33
2022-12-14T05:30:42.647Z,18.85
2022-12-14T05:33:20.094Z,19.75
2022-12-14T05:35:46.812Z,18.50
2022-12-14T05:38:13.534Z,20.50
2022-12-14T05:40:40.285Z,19.50
2022-12-14T05:43:13.305Z,19.65
2022-12-14T05:45:40.113Z,19.20
2022-12-14T05:48:06.945Z,19.45
2022-12-14T05:50:33.660Z,21.33
2022-12-14T05:53:00.376Z,21.15
2022-12-14T05:55:27.139Z,19.48
2022-12-14T05:57:53.842Z,20.15
2022-12-14T06:00:20.861Z,19.40
2022-12-14T06:02:47.675Z,19.65
2022-12-14T06:05:14.498Z,22.08
2022-12-14T06:07:41.260Z,21.40
2022-12-14T06:10:08.279Z,21.70
2022-12-14T06:12:35.022Z,21.38
2022-12-14T06:15:01.750Z,22.33
2022-12-14T06:17:28.441Z,21.58
2022-12-14T06:19:55.208Z,21.50
2022-12-14T06:22:21.992Z,20.67
2022-12-14T06:24:48.742Z,21.52
2022-12-14T06:27:15.491Z,21.58
2022-12-14T06:29:42.700Z,22.05
2022-12-14T06:32:09.407Z,21.55
2022-12-14T06:34:39.867Z,21.15
2022-12-14T06:37:08.356Z,23.30
2022-12-14T06:39:35.040Z,20.83
2022-12-14T06:42:01.910Z,23.15
2022-12-14T06:44:28.685Z,23.25
2022-12-14T06:46:55.808Z,24.13
2022-12-14T06:49:22.823Z,22.55
2022-12-14T06:51:50.714Z,23.38
2022-12-14T06:54:18.819Z,21.23
2022-12-14T06:56:47.240Z,24.38
2022-12-14T06:59:15.084Z,23.70
2022-12-14T07:01:42.853Z,25.25
2022-12-14T07:04:10.132Z,23.13
2022-12-14T07:06:40.749Z,23.92
2022-12-14T07:09:11.744Z,23.98
2022-12-14T07:11:38.850Z,24.95
2022-12-14T07:14:07.053Z,24.00
2022-12-14T07:16:35.240Z,23.88
2022-12-14T07:19:02.059Z,25.60
2022-12-14T07:21:29.372Z,24.95
2022-12-14T07:23:56.422Z,23.05
2022-12-14T07:26:25.690Z,23.60
2022-12-14T07:28:53.348Z,24.15
2022-12-14T07:31:26.283Z,24.40
2022-12-14T07:33:55.118Z,22.67
2022-12-14T07:36:23.308Z,26.23
2022-12-14T07:38:51.607Z,26.25
2022-12-14T07:41:26.967Z,24.65
2022-12-14T07:43:55.159Z,24.88
2022-12-14T07:46:24.945Z,25.95
2022-12-14T07:48:54.384Z,25.27
2022-12-14T07:51:24.039Z,24.00
2022-12-14T07:53:51.606Z,27.30
2022-12-14T07:56:21.619Z,26.67
2022-12-14T07:58:49.419Z,26.58
2022-12-14T08:01:18.958Z,26.95
2022-12-14T08:03:48.070Z,26.63
2022-12-14T08:06:16.656Z,24.15
2022-12-14T08:08:44.394Z,26.40
2022-12-14T08:11:11.869Z,29.42
2022-12-14T08:13:39.132Z,25.42
2022-12-14T08:16:08.231Z,24.23
2022-12-14T08:18:35.674Z,26.17
2022-12-14T08:21:04.718Z,23.42
2022-12-14T08:23:32.590Z,24.35
2022-12-14T08:26:00.987Z,26.50
2022-12-14T08:28:29.212Z,24.75
2022-12-14T08:30:56.107Z,26.58
2022-12-14T08:33:23.662Z,26.50
2022-12-14T08:35:50.382Z,25.30
2022-12-14T08:38:17.128Z,25.95
2022-12-14T08:40:43.866Z,25.55
2022-12-14T08:43:10.726Z,26.45
2022-12-14T08:45:37.517Z,25.23
2022-12-14T08:48:04.445Z,26.27
2022-12-14T08:50:31.539Z,26.38
2022-12-14T08:52:58.289Z,24.55
2022-12-14T08:55:28.412Z,26.75
2022-12-14T08:57:57.087Z,28.10
2022-12-14T09:00:24.012Z,26.77
2022-12-14T09:02:51.635Z,25.02
2022-12-14T09:05:18.464Z,25.55
2022-12-14T09:07:45.526Z,26.45
2022-12-14T09:10:13.078Z,24.65
2022-12-14T09:12:40.458Z,27.00
2022-12-14T09:15:08.055Z,30.08
2022-12-14T09:17:35.181Z,27.63
2022-12-14T09:20:01.978Z,26.52
2022-12-14T09:22:28.962Z,26.05
2022-12-14T09:24:55.771Z,26.77
2022-12-14T09:27:22.802Z,26.40
2022-12-14T09:29:50.445Z,25.95
2022-12-14T09:32:17.358Z,23.10
2022-12-14T09:34:44.284Z,27.02
2022-12-14T09:37:11.159Z,25.20
2022-12-14T09:39:38.197Z,23.83
2022-12-14T09:42:24.261Z,24.02
2022-12-14T09:45:07.258Z,23.13
2022-12-14T09:47:48.051Z,24.50
2022-12-14T09:50:17.813Z,23.20
2022-12-14T09:52:51.575Z,23.77
2022-12-14T09:55:31.434Z,22.48
2022-12-14T09:58:22.856Z,22.52
2022-12-14T10:01:16.939Z,23.48
2022-12-14T10:04:01.553Z,21.83
2022-12-14T10:06:31.102Z,23.63
2022-12-14T10:09:33.136Z,24.27
2022-12-14T10:12:40.724Z,26.50
2022-12-14T10:15:48.582Z,26.58
2022-12-14T10:18:57.446Z,23.30
2022-12-14T10:21:14.392Z,24.48
2022-12-14T10:24:00.450Z,27.30
2022-12-14T10:26:34.601Z,25.27
2022-12-14T10:29:30.053Z,24.23
2022-12-14T10:32:15.806Z,24.60
2022-12-14T10:34:43.827Z,26.45
2022-12-14T10:37:29.488Z,26.58
2022-12-14T10:40:22.311Z,24.02
2022-12-14T10:42:55.842Z,25.88
2022-12-14T10:45:42.524Z,24.00
2022-12-14T10:48:32.984Z,23.75
2022-12-14T10:51:37.289Z,24.50
2022-12-14T10:54:24.353Z,22.52
2022-12-14T10:56:51.346Z,22.45
2022-12-14T10:59:18.069Z,22.02
2022-12-14T11:01:52.997Z,22.55
2022-12-14T11:04:36.136Z,20.65
2022-12-14T11:07:12.634Z,23.35
2022-12-14T11:09:40.010Z,23.63
2022-12-14T11:12:28.649Z,23.15
2022-12-14T11:15:01.923Z,22.70
2022-12-14T11:17:37.286Z,22.25
2022-12-14T11:20:21.033Z,21.52
2022-12-14T11:22:56.481Z,23.20
2022-12-14T11:25:42.110Z,23.58
2022-12-14T11:28:36.167Z,22.15
2022-12-14T11:31:11.259Z,23.30
2022-12-14T11:33:45.830Z,22.83
2022-12-14T11:36:24.355Z,23.30
2022-12-14T11:39:02.750Z,22.92
2022-12-14T11:41:38.416Z,22.70
2022-12-14T11:44:14.167Z,22.80
2022-12-14T11:46:57.733Z,19.80
2022-12-14T11:49:28.985Z,21.20
2022-12-14T11:52:02.459Z,21.70
2022-12-14T11:54:30.312Z,20.20
2022-12-14T11:57:05.144Z,20.90
2022-12-14T11:59:47.685Z,21.33
2022-12-14T12:02:27.129Z,21.50
2022-12-14T12:05:08.944Z,18.20
2022-12-14T12:07:42.547Z,19.25
2022-12-14T12:10:12.243Z,20.70
2022-12-14T12:12:54.199Z,20.50
2022-12-14T12:15:32.479Z,21.42
2022-12-14T12:18:15.467Z,20.05
2022-12-14T12:20:59.466Z,21.08
2022-12-14T12:23:53.186Z,20.23
2022-12-14T12:26:29.180Z,19.52
2022-12-14T12:29:02.831Z,20.90
2022-12-14T12:31:38.508Z,20.17
2022-12-14T12:34:13.333Z,20.80
2022-12-14T12:36:56.903Z,20.15
2022-12-14T12:39:28.214Z,19.02
2022-12-14T12:42:19.445Z,20.25
2022-12-14T12:45:01.436Z,21.95
2022-12-14T12:47:46.010Z,22.42
2022-12-14T12:50:17.703Z,20.27
2022-12-14T12:53:03.853Z,21.05
2022-12-14T12:56:01.907Z,21.85
2022-12-14T12:58:33.705Z,20.63
2022-12-14T13:01:28.902Z,19.65
2022-12-14T13:03:59.841Z,20.42
2022-12-14T13:06:40.855Z,21.98
2022-12-14T13:09:35.876Z,21.05
2022-12-14T13:12:04.517Z,21.15
2022-12-14T13:14:52.780Z,19.08
2022-12-14T13:17:47.263Z,21.60
2022-12-14T13:20:27.129Z,17.63
2022-12-14T13:22:55.075Z,19.35
2022-12-14T13:25:36.021Z,19.88
2022-12-14T13:28:27.425Z,19.88
2022-12-14T13:31:04.261Z,18.08
2022-12-14T13:33:55.417Z,19.38
2022-12-14T13:36:31.035Z,17.95
2022-12-14T13:39:19.371Z,20.05
2022-12-14T13:41:53.986Z,18.80
2022-12-14T13:44:44.050Z,17.23
2022-12-14T13:47:17.591Z,21.00
2022-12-14T13:50:26.311Z,17.60
2022-12-14T13:52:47.593Z,18.25
2022-12-14T13:55:40.289Z,20.55
2022-12-14T13:58:15.636Z,19.35
2022-12-14T14:00:45.510Z,17.40
2022-12-14T14:03:34.379Z,19.58
2022-12-14T14:06:18.654Z,18.05
2022-12-14T14:08:50.955Z,18.83
2022-12-14T14:11:39.660Z,17.98
2022-12-14T14:14:22.400Z,17.15
2022-12-14T14:16:55.140Z,17.75
2022-12-14T14:19:26.930Z,18.50
2022-12-14T14:22:23.299Z,18.35
2022-12-14T14:24:55.583Z,17.33
2022-12-14T14:27:50.833Z,19.15
2022-12-14T14:30:50.149Z,18.27
2022-12-14T14:33:46.173Z,18.40
2022-12-14T14:36:33.707Z,18.38
2022-12-14T14:39:24.564Z,17.45
2022-12-14T14:41:54.429Z,18.83
2022-12-14T14:44:42.528Z,20.30
2022-12-14T14:47:36.907Z,22.13
2022-12-14T14:50:15.918Z,21.35
2022-12-14T14:52:42.656Z,22.38
2022-12-14T14:58:36.646Z,21.48
2022-12-14T15:01:15.386Z,21.88
2022-12-14T15:03:48.068Z,21.05
2022-12-14T15:06:18.496Z,22.55
2022-12-14T15:08:50.427Z,24.13
2022-12-14T15:11:21.359Z,21.85
2022-12-14T15:14:15.357Z,22.50
2022-12-14T15:16:45.587Z,21.08
2022-12-14T15:19:33.776Z,24.70
2022-12-14T15:22:05.286Z,22.25
2022-12-14T15:24:39.107Z,23.30
2022-12-14T15:27:32.167Z,28.65
2022-12-14T15:30:05.229Z,29.33
2022-12-14T15:32:32.906Z,34.65
2022-12-14T15:35:02.354Z,51.15
2022-12-14T15:37:40.535Z,29.58
2022-12-14T15:40:12.784Z,23.25
2022-12-14T15:43:00.235Z,21.45
2022-12-14T15:45:31.207Z,23.67
2022-12-14T15:48:24.620Z,27.00
2022-12-14T15:50:56.282Z,24.92
2022-12-14T15:53:25.991Z,27.00
2022-12-14T15:56:00.358Z,27.70
2022-12-14T15:58:36.703Z,25.48
2022-12-14T16:01:16.812Z,26.90
2022-12-14T16:03:47.338Z,26.20
2022-12-14T16:06:17.357Z,26.85
2022-12-14T16:08:51.719Z,28.50
2022-12-14T16:11:33.259Z,28.13
2022-12-14T16:14:03.240Z,24.52
2022-12-14T16:16:30.298Z,25.45
2022-12-14T16:19:13.830Z,25.27
2022-12-14T16:21:49.746Z,28.35
2022-12-14T16:24:25.123Z,28.05
2022-12-14T16:26:59.993Z,28.52
2022-12-14T16:29:29.462Z,30.10
2022-12-14T16:32:13.325Z,28.10
2022-12-14T16:34:48.026Z,28.42
2022-12-14T16:37:32.845Z,21.98
2022-12-14T16:40:00.124Z,20.10
2022-12-14T16:42:27.308Z,16.70
2022-12-14T16:44:55.027Z,14.45
2022-12-14T16:47:25.611Z,14.63
2022-12-14T16:50:02.147Z,14.75
2022-12-14T16:52:38.079Z,14.05
2022-12-14T16:55:07.908Z,14.10
2022-12-14T16:57:35.690Z,14.00
2022-12-14T17:00:05.847Z,13.13
2022-12-14T17:02:35.276Z,12.85
2022-12-14T17:05:37.195Z,13.70
2022-12-14T17:08:06.706Z,13.27
2022-12-14T17:10:34.239Z,15.00
2022-12-14T17:13:02.880Z,13.57
2022-12-14T17:15:35.075Z,14.02
2022-12-14T17:18:04.558Z,14.32
2022-12-14T17:20:39.180Z,14.10
2022-12-14T17:23:09.773Z,15.45
2022-12-14T17:25:36.856Z,14.60
2022-12-14T17:28:03.793Z,15.57
2022-12-14T17:30:30.662Z,15.35
2022-12-14T17:32:58.062Z,14.65
2022-12-14T17:35:34.272Z,15.25
2022-12-14T17:38:01.024Z,16.27
2022-12-14T17:40:28.142Z,22.70
2022-12-14T17:42:58.063Z,23.05
2022-12-14T17:45:27.483Z,15.00
2022-12-14T17:47:54.775Z,18.50
2022-12-14T17:50:22.631Z,16.13
2022-12-14T17:52:52.589Z,16.77
2022-12-14T17:55:23.338Z,16.45
2022-12-14T17:57:50.495Z,17.08
2022-12-14T18:00:41.605Z,17.73
2022-12-14T18:03:10.914Z,15.60
2022-12-14T18:05:44.924Z,16.52
2022-12-14T18:08:19.177Z,15.68
2022-12-14T18:10:47.026Z,14.98
2022-12-14T18:13:13.926Z,16.02
2022-12-14T18:15:50.526Z,15.68
2022-12-14T18:18:22.396Z,15.43
2022-12-14T18:20:56.184Z,17.65
2022-12-14T18:23:23.182Z,17.52
2022-12-14T18:25:52.716Z,15.93
2022-12-14T18:28:20.292Z,15.55
2022-12-14T18:30:55.408Z,14.52
2022-12-14T18:33:25.416Z,24.35
2022-12-14T18:35:53.928Z,14.68
2022-12-14T18:38:21.163Z,17.30
2022-12-14T18:40:50.778Z,16.55
2022-12-14T18:43:25.584Z,16.00
2022-12-14T18:45:53.712Z,13.43
2022-12-14T18:48:21.642Z,12.38
2022-12-14T18:50:49.839Z,13.13
2022-12-14T18:53:18.700Z,13.57
2022-12-14T18:55:45.871Z,24.00
2022-12-14T18:58:16.860Z,21.48
2022-12-14T19:00:44.607Z,19.42
2022-12-14T19:03:11.678Z,12.70
2022-12-14T19:05:38.610Z,11.45
2022-12-14T19:08:07.559Z,13.55
2022-12-14T19:10:34.406Z,14.98
2022-12-14T19:13:01.268Z,15.10
2022-12-14T19:15:31.384Z,14.02
2022-12-14T19:17:58.130Z,14.57
2022-12-14T19:20:27.543Z,14.50
2022-12-14T19:22:54.941Z,14.73
2022-12-14T19:25:23.039Z,13.90
2022-12-14T19:30:39.476Z,15.60
2022-12-14T19:33:06.385Z,15.40
2022-12-14T19:35:33.135Z,13.65
2022-12-14T19:37:59.843Z,16.15
2022-12-14T19:40:26.732Z,14.50
2022-12-14T19:42:53.578Z,15.18
2022-12-14T19:45:20.493Z,15.25
2022-12-14T19:47:47.367Z,16.35
2022-12-14T19:50:15.525Z,15.90
2022-12-14T19:52:43.285Z,15.68
2022-12-14T19:55:11.517Z,16.10
2022-12-14T19:57:39.538Z,17.27
2022-12-14T20:00:07.680Z,17.13
2022-12-14T20:02:34.606Z,17.90
2022-12-14T20:05:01.478Z,17.35
2022-12-14T20:07:28.220Z,16.58
2022-12-14T20:09:54.949Z,17.95
2022-12-14T20:12:21.797Z,18.63
2022-12-14T20:14:49.422Z,19.30
2022-12-14T20:17:16.575Z,19.98
2022-12-14T20:19:43.421Z,20.80
2022-12-14T20:22:10.286Z,20.25
2022-12-14T20:24:38.246Z,20.85
2022-12-14T20:27:05.057Z,20.60
2022-12-14T20:29:32.012Z,19.23
2022-12-14T20:31:58.827Z,20.58
2022-12-14T20:34:25.895Z,19.05
2022-12-14T20:36:52.732Z,21.00
2022-12-14T20:39:19.484Z,19.42
2022-12-14T20:41:46.232Z,19.80
2022-12-14T20:44:15.213Z,20.17
2022-12-14T20:46:44.861Z,20.70
2022-12-14T20:49:17.092Z,19.58
2022-12-14T20:51:45.143Z,20.48
2022-12-14T20:54:14.821Z,21.90
2022-12-14T20:56:42.535Z,20.42
2022-12-14T20:59:10.442Z,21.38
2022-12-14T21:01:39.341Z,21.67
2022-12-14T21:04:07.297Z,20.60
2022-12-14T21:06:38.146Z,21.80
2022-12-14T21:09:05.663Z,21.23
2022-12-14T21:11:57.555Z,19.25
2022-12-14T21:14:26.305Z,20.45
2022-12-14T21:16:53.217Z,18.33
2022-12-14T21:19:20.125Z,19.40
2022-12-14T21:21:53.286Z,20.58
2022-12-14T21:24:37.434Z,18.65
2022-12-14T21:27:09.777Z,18.35
2022-12-14T21:29:36.596Z,19.67
2022-12-14T21:32:04.367Z,17.60
2022-12-14T21:34:31.975Z,19.02
2022-12-14T21:36:59.302Z,19.58
2022-12-14T21:39:26.107Z,19.10
2022-12-14T21:42:12.983Z,18.42
2022-12-14T21:44:47.838Z,18.20
2022-12-14T21:47:17.804Z,20.02
2022-12-14T21:49:45.835Z,18.65
2022-12-14T21:52:19.067Z,19.50
2022-12-14T21:54:45.799Z,20.58
2022-12-14T21:57:36.658Z,19.58
2022-12-14T22:00:05.987Z,20.33
2022-12-14T22:02:32.836Z,19.13
2022-12-14T22:04:59.645Z,19.30
2022-12-14T22:07:32.501Z,17.35
2022-12-14T22:09:59.767Z,18.75
2022-12-14T22:12:26.830Z,18.88
2022-12-14T22:14:53.689Z,19.60
2022-12-14T22:17:20.549Z,20.33
2022-12-14T22:19:48.537Z,18.60
2022-12-14T22:22:16.624Z,18.77
2022-12-14T22:24:44.891Z,19.15
2022-12-14T22:27:12.380Z,19.38
2022-12-14T22:29:39.394Z,19.05
2022-12-14T22:32:07.150Z,18.40
2022-12-14T22:34:34.167Z,19.38
2022-12-14T22:37:00.996Z,18.30
2022-12-14T22:39:27.693Z,21.38
2022-12-14T22:41:54.485Z,21.60
2022-12-14T22:44:21.323Z,19.10
2022-12-14T22:46:48.094Z,20.75
2022-12-14T22:49:16.839Z,20.85
2022-12-14T22:51:43.775Z,20.48
2022-12-14T22:54:39.350Z,19.50
2022-12-14T22:57:13.741Z,19.70
2022-12-14T22:59:53.258Z,18.73
2022-12-14T23:02:20.199Z,20.08
2022-12-14T23:04:50.128Z,20.45
2022-12-14T23:07:17.125Z,19.35
2022-12-14T23:10:02.667Z,17.70
2022-12-14T23:12:48.319Z,18.10
2022-12-14T23:15:33.774Z,19.08
2022-12-14T23:18:23.968Z,19.95
2022-12-14T23:21:09.461Z,18.55
2022-12-14T23:23:59.936Z,18.48
2022-12-14T23:26:45.770Z,20.45
2022-12-14T23:29:31.251Z,19.35
2022-12-14T23:32:16.618Z,20.58
2022-12-14T23:35:02.022Z,19.42
2022-12-14T23:37:47.484Z,20.17
2022-12-14T23:40:32.878Z,19.60
2022-12-14T23:43:33.409Z,20.02
2022-12-14T23:46:19.924Z,18.48
2022-12-14T23:49:08.091Z,18.80
2022-12-14T23:51:55.671Z,19.15
2022-12-14T23:54:41.038Z,19.30
2022-12-14T23:57:26.522Z,18.75
